SBPVSBCY

Guest
Details From SBPV - Governador Jorge Teixeira De Oliveira
To SBCY - Marechal Rondon
Flight Number -
Tags decoded
Created
Modified
Stats Distance 618 nm / 1,145 km
Max Altitude 0 ft / 0 m
Waypoints 2
Social Downloads 1
Likes 0
Share VATSIM

Download

Looking for another format? Having issues loading an existing format? Contact us
Advertisement - Login to hide

Notes

Requested: SBPV UW10 ANRIR UL655 ISUDU UM668 SBCY Unmatched points: UW10 ANRIR UL655 ISUDU UM668

Route

SBPV SBCY

ID Type Via Altitude Latitude Longitude Leg Dist Tot Dist Heading (true) Name
O SBPV APT - 0 ft / 0 m -8.70929˚ -63.90228˚ - 0 nm - Governador Jorge Teixeira De Oliveira
O SBCY APT - 0 ft / 0 m -15.65293˚ -56.11672˚ 618 nm 618 nm 133° / 131° Marechal Rondon

Altitude Profile

Advertisement - Login to hide

Weather


0- 5 10 15 20 25 30 35+ Temperature / ° C

Clouds and Precipitation
Forecast for 2017-12-15 06:00 UTC. Updated an hour ago

Ground ~20,000 ft ~40,000 ft Winds

SBPV

Details ICAO SBPV (PVH)
Name Governador Jorge Teixeira De Oliveira
Region Brazil
Timezone America/Porto_Velho (UTC-4.0)
Stats Elevation 290 ft / 88 m (AMSL)
Location -8.709293° -63.902279°
Runways 1
Magnetic Variation 12.891° W

METAR

SBPV 150600Z 02003KT 9999 -RA FEW005 FEW040TCU BKN100 23/22 Q1009

Decode

TAF

Not found

Departure Runways

ID Width Length Bearing (true) Bearing (mag) Surface Threshold Offset Overrun Length
01 148 ft / 45 m 7,919 ft / 2,414 m 356.64° 9.53° Asphalt 0 ft / 0 m 200 ft / 61 m
19 148 ft / 45 m 7,919 ft / 2,414 m 176.64° 189.53° Asphalt 0 ft / 0 m 200 ft / 61 m

SBCY

Details ICAO SBCY (CGB)
Name Marechal Rondon
Region Brazil
Timezone America/Cuiaba (UTC-3.0)
Stats Elevation 609 ft / 186 m (AMSL)
Location -15.652930° -56.116720°
Runways 1
Magnetic Variation 17.398° W

METAR

SBCY 150600Z 05006KT 2000 TSRA BKN009 FEW012CB 22/21 Q1012

Decode

TAF

TAF TAF SBCY 150400Z 1506/1606 30003KT CAVOK TN25/1508Z TX34/1516Z BECMG 1511/1513 31010KT 9999 SCT020 BECMG 1515/1517 20010KT SCT020 FEW025TCU BECMG 1519/1521 33005KT BECMG 1523/1601 04003KT CAVOK BECMG 1603/1605 31003KT RMK PDY

Decode

Destination Runways

ID Width Length Bearing (true) Bearing (mag) Surface Threshold Offset Overrun Length
17 148 ft / 45 m 7,558 ft / 2,304 m 152.83° 170.23° Asphalt 0 ft / 0 m 190 ft / 58 m
35 148 ft / 45 m 7,558 ft / 2,304 m 332.82° 350.22° Asphalt 0 ft / 0 m 190 ft / 58 m

Approach Navaids

Runway Type Ident Frequency Range Bearing (true) Bearing (mag) Slope Elevation
35 Localiser ICB 109.30 MHz 18 nm / 33 km 333.66° 351.05° - 609 ft / 186 m (AMSL)

Popular Alternatives